Currently 57°F in French Valley, California, USA
57°F
77°F / 46°F
calm
0.00"
Wednesday, October 20, 2021 11:04 PM PDT

French Valley, California Weather Summary
Last 36 Hours

Temperature Winds Hourly Humidity Dewpoint
Time Report Norm Report Norm Max Gusts Precip. Rpt. Norm Rpt. Norm Pressure
1Wed 11:04 PM  57.3°F  63°F  calm  1 mph  none  0.00"  81%  73%  51°F  53°F  30.17"
Wed 11:00 PM  57.3°F  63°F  calm  1 mph  none  0.00"  81%  73%  51°F  53°F  30.16"
Wed 10:00 PM  60.0°F  64°F  calm  1 mph  none  0.00"  80%  72%  54°F  54°F  30.17"
Wed 09:00 PM  61.2°F  65°F  calm  1 mph  none  0.00"  78%  70%  54°F  55°F  30.16"
Wed 08:00 PM  63.2°F  67°F  calm  2 mph  none  0.00"  75%  67%  55°F  56°F  30.15"
Wed 07:00 PM  64.6°F  70°F  calm  3 mph  none  0.00"  72%  60%  55°F  55°F  30.14"
Wed 06:00 PM  68.2°F  74°F  calm  4 mph  none  0.00"  64%  53%  55°F  55°F  30.11"
Wed 05:00 PM  72.2°F  78°F  calm  6 mph  none  0.00"  55%  46%  55°F  54°F  30.10"
Wed 04:00 PM  74.4°F  80°F  calm  5 mph  none  0.00"  47%  41%  52°F  53°F  30.09"
Wed 03:00 PM  76.1°F  81°F  calm  5 mph  none  0.00"  42%  39%  50°F  52°F  30.10"
2Wed 02:11 PM  77.3°F  80°F  calm  4 mph  none  ----  37%  38%  48°F  52°F  30.11"
Wed 02:00 PM  76.4°F  80°F  calm  4 mph  none  0.00"  38%  38%  48°F  52°F  30.12"
Wed 01:00 PM  75.7°F  79°F  calm  4 mph  none  0.00"  36%  40%  46°F  52°F  30.15"
Wed 12:00 PM  72.4°F  77°F  calm  3 mph  none  0.00"  37%  44%  44°F  53°F  30.18"
Wed 11:00 AM  67.7°F  73°F  calm  3 mph  none  0.00"  49%  52%  47°F  54°F  30.20"
Wed 10:00 AM  60.3°F  69°F  calm  2 mph  none  0.00"  68%  61%  49°F  54°F  30.20"
Wed 09:00 AM  54.4°F  64°F  calm  1 mph  none  0.00"  84%  70%  50°F  53°F  30.21"
Wed 08:00 AM  48.0°F  59°F  calm  1 mph  none  0.00"  92%  76%  46°F  51°F  30.20"
Wed 07:00 AM  46.8°F  58°F  calm  1 mph  none  0.00"  94%  78%  45°F  50°F  30.18"
3Wed 06:42 AM  46.4°F  58°F  calm  1 mph  none  ----  94%  77%  45°F  50°F  30.17"
Wed 06:00 AM  47.5°F  58°F  calm  1 mph  none  0.00"  92%  78%  45°F  51°F  30.16"
Wed 05:00 AM  47.8°F  59°F  calm  1 mph  none  0.00"  93%  77%  46°F  51°F  30.15"
Wed 04:00 AM  48.4°F  59°F  calm  1 mph  none  0.00"  95%  77%  47°F  52°F  30.14"
Wed 03:00 AM  49.4°F  60°F  calm  1 mph  none  0.00"  95%  76%  48°F  52°F  30.14"
Wed 02:00 AM  49.7°F  60°F  calm  1 mph  none  0.00"  95%  75%  48°F  52°F  30.15"
Wed 01:00 AM  52.0°F  61°F  calm  calm  none  0.00"  92%  75%  50°F  53°F  30.15"
Wed 12:00 AM  51.8°F  62°F  calm  1 mph  none  0.00"  93%  74%  50°F  53°F  30.15"
Tue 11:00 PM  53.3°F  63°F  calm  1 mph  none  0.00"  91%  73%  51°F  54°F  30.14"
Tue 10:00 PM  53.5°F  64°F  calm  1 mph  none  0.00"  91%  72%  51°F  55°F  30.13"
Tue 09:00 PM  55.2°F  66°F  calm  1 mph  none  0.00"  87%  70%  51°F  55°F  30.11"
Tue 08:00 PM  56.2°F  68°F  calm  2 mph  none  0.00"  85%  67%  52°F  56°F  30.09"
Tue 07:00 PM  59.1°F  70°F  calm  3 mph  none  0.00"  80%  61%  53°F  56°F  30.06"
Tue 06:00 PM  64.4°F  74°F  calm  5 mph  none  0.00"  66%  53%  52°F  55°F  30.03"
Tue 05:00 PM  68.7°F  78°F  calm  6 mph  none  0.00"  57%  46%  52°F  55°F  30.03"
Tue 04:00 PM  71.7°F  80°F  calm  5 mph  none  0.00"  42%  41%  46°F  54°F  30.03"
Tue 03:00 PM  71.0°F  81°F  calm  5 mph  none  0.00"  41%  38%  46°F  52°F  30.05"
Tue 02:00 PM  69.3°F  81°F  calm  4 mph  none  0.00"  44%  38%  45°F  52°F  30.06"
Tue 01:00 PM  66.9°F  79°F  calm  4 mph  none  0.00"  50%  39%  47°F  52°F  30.10"
Tue 12:00 PM  63.4°F  77°F  calm  3 mph  none  0.00"  56%  44%  47°F  53°F  30.13"

  1. Current weather data. No green row appears if the current weather data is also the high or low for the current day.
  2. High temperature for the current day.
  3. Low temperature for the current day.

The French Valley, California weather pages are a service of WeatherCurrents. French Valley is located in southwestern Riverside County, California, north of Temecula, east of Murrieta, and south of Winchester. French Valley is bordered by Lake Skinner.
Copyright ©2021  WeatherCurrents. All rights reserved. - Submit questions and comments - Privacy Policy

This page automatically refreshes every 10 minutes.